Time;durP1;ratioP1;P1;durP2;ratioP2;P2;SDS_P1;SDS_P2;PMS_P1;PMS_P2;Temp;Humidity;BMP_temperature;BMP_pressure;BME280_temperature;BME280_humidity;BME280_pressure;Samples;Min_cycle;Max_cycle;Signal;HPM_P1;HPM_P2
2023/08/08 00:00:15;;;;;;;8.75;1.80;;;;;;;;;;5088743;28;20020;-82
2023/08/08 00:02:41;;;;;;;6.25;1.90;;;;;;;;;;5085754;28;20537;-83
2023/08/08 00:05:07;;;;;;;5.82;2.08;;;;;;;;;;5108230;28;20023;-83
2023/08/08 00:07:32;;;;;;;3.47;1.90;;;;;;;;;;5110831;28;20454;-83
2023/08/08 00:09:57;;;;;;;3.25;2.15;;;;;;;;;;5073557;28;20340;-83
2023/08/08 00:12:23;;;;;;;5.35;1.80;;;;;;;;;;5093542;28;20027;-81
2023/08/08 00:14:49;;;;;;;7.63;1.80;;;;;;;;;;5086277;28;20108;-83
2023/08/08 00:17:14;;;;;;;3.83;1.50;;;;;;;;;;5079403;28;20016;-81
2023/08/08 00:19:40;;;;;;;6.15;1.50;;;;;;;;;;5078342;28;20023;-82
2023/08/08 00:22:05;;;;;;;6.75;1.67;;;;;;;;;;5074465;28;20032;-83
2023/08/08 00:24:31;;;;;;;3.83;1.70;;;;;;;;;;5089455;28;20379;-83
2023/08/08 00:26:56;;;;;;;7.53;1.60;;;;;;;;;;5094494;28;20080;-84
2023/08/08 00:29:22;;;;;;;9.13;1.83;;;;;;;;;;5082899;28;20060;-83
2023/08/08 00:31:49;;;;;;;3.90;1.40;;;;;;;;;;5079924;28;20539;-84
2023/08/08 00:34:15;;;;;;;3.08;1.40;;;;;;;;;;5092255;28;20023;-84
2023/08/08 00:36:40;;;;;;;5.22;1.80;;;;;;;;;;5097438;28;20103;-84
2023/08/08 00:39:05;;;;;;;5.53;1.30;;;;;;;;;;5078821;28;20055;-83
2023/08/08 00:41:31;;;;;;;4.95;1.90;;;;;;;;;;5090885;28;20027;-84
2023/08/08 00:43:59;;;;;;;3.28;1.50;;;;;;;;;;5085602;28;20019;-82
2023/08/08 00:46:25;;;;;;;3.38;1.63;;;;;;;;;;5093081;28;20470;-84
2023/08/08 00:48:51;;;;;;;3.10;1.50;;;;;;;;;;5088016;28;20043;-83
2023/08/08 00:51:18;;;;;;;5.50;1.55;;;;;;;;;;5077671;28;20089;-83
2023/08/08 00:53:44;;;;;;;7.03;1.80;;;;;;;;;;5069934;28;20382;-83
2023/08/08 00:56:12;;;;;;;6.82;1.90;;;;;;;;;;5073682;28;20020;-83
2023/08/08 00:58:38;;;;;;;13.05;1.90;;;;;;;;;;5074000;28;20020;-83
2023/08/08 01:01:03;;;;;;;5.00;1.42;;;;;;;;;;5074763;28;20532;-83
2023/08/08 01:03:29;;;;;;;9.88;1.58;;;;;;;;;;5075707;28;20100;-83
2023/08/08 01:06:01;;;;;;;7.80;1.92;;;;;;;;;;5094107;28;20020;-83
2023/08/08 01:08:30;;;;;;;6.75;1.70;;;;;;;;;;5073182;28;20039;-83
2023/08/08 01:10:58;;;;;;;4.00;1.30;;;;;;;;;;5066643;28;20479;-83
2023/08/08 01:13:28;;;;;;;4.35;1.55;;;;;;;;;;5074140;28;20020;-83
2023/08/08 01:15:53;;;;;;;4.55;1.48;;;;;;;;;;5073919;28;20463;-83
2023/08/08 01:18:19;;;;;;;7.47;1.60;;;;;;;;;;5072856;28;20038;-82
2023/08/08 01:20:46;;;;;;;4.50;1.80;;;;;;;;;;5074914;28;20074;-83
2023/08/08 01:23:23;;;;;;;5.47;1.65;;;;;;;;;;5092095;28;20032;-83
2023/08/08 01:25:54;;;;;;;7.47;1.95;;;;;;;;;;5060819;28;20035;-83
2023/08/08 01:28:23;;;;;;;5.45;1.85;;;;;;;;;;5074174;28;20115;-84
2023/08/08 01:30:51;;;;;;;10.35;1.88;;;;;;;;;;5093214;28;20057;-83
2023/08/08 01:33:19;;;;;;;5.00;1.92;;;;;;;;;;5077687;28;20020;-83
2023/08/08 01:35:47;;;;;;;5.00;1.67;;;;;;;;;;5096037;28;20049;-83
2023/08/08 01:38:31;;;;;;;7.57;1.65;;;;;;;;;;5076653;28;20395;-83
2023/08/08 01:40:57;;;;;;;6.90;1.50;;;;;;;;;;5076034;28;20603;-83
2023/08/08 01:43:23;;;;;;;5.85;1.60;;;;;;;;;;5075222;28;20545;-83
2023/08/08 01:45:49;;;;;;;9.57;1.88;;;;;;;;;;5075377;28;20111;-83
2023/08/08 01:48:15;;;;;;;7.28;1.95;;;;;;;;;;5065714;28;20123;-84
2023/08/08 01:50:40;;;;;;;11.80;1.70;;;;;;;;;;5076589;28;20020;-83
2023/08/08 01:53:05;;;;;;;3.65;1.50;;;;;;;;;;5075950;28;20020;-83
2023/08/08 01:55:31;;;;;;;7.35;1.95;;;;;;;;;;5076672;28;20053;-83
2023/08/08 01:57:56;;;;;;;7.20;1.63;;;;;;;;;;5094496;28;20069;-83
2023/08/08 02:00:22;;;;;;;6.10;1.98;;;;;;;;;;5084334;28;20016;-83
2023/08/08 02:02:47;;;;;;;6.38;2.08;;;;;;;;;;5093430;28;20570;-83
2023/08/08 02:05:14;;;;;;;8.63;1.88;;;;;;;;;;5082634;28;20020;-89
2023/08/08 02:07:45;;;;;;;7.30;1.50;;;;;;;;;;5081488;28;20510;-83
2023/08/08 02:10:11;;;;;;;6.10;1.77;;;;;;;;;;5076024;28;20439;-83
2023/08/08 02:12:36;;;;;;;4.28;1.73;;;;;;;;;;5077189;28;20223;-83
2023/08/08 02:15:08;;;;;;;6.32;1.98;;;;;;;;;;5087828;28;20016;-88
2023/08/08 02:17:34;;;;;;;9.25;2.25;;;;;;;;;;5107784;28;20016;-83
2023/08/08 02:20:01;;;;;;;8.35;1.60;;;;;;;;;;5101833;28;20463;-81
2023/08/08 02:22:27;;;;;;;3.97;1.50;;;;;;;;;;5100377;28;20027;-82
2023/08/08 02:24:53;;;;;;;7.10;2.40;;;;;;;;;;5103872;28;20012;-82
2023/08/08 02:27:18;;;;;;;4.90;1.80;;;;;;;;;;5095807;28;20039;-82
2023/08/08 02:29:46;;;;;;;11.63;1.80;;;;;;;;;;5101701;28;20024;-82
2023/08/08 02:32:13;;;;;;;5.47;1.70;;;;;;;;;;5087988;28;20119;-82
2023/08/08 02:34:42;;;;;;;6.07;2.00;;;;;;;;;;5083439;28;20099;-82
2023/08/08 02:37:10;;;;;;;3.95;1.77;;;;;;;;;;5091901;28;20074;-81
2023/08/08 02:39:35;;;;;;;7.88;1.77;;;;;;;;;;5096412;28;20033;-82
2023/08/08 02:42:00;;;;;;;6.30;1.77;;;;;;;;;;5096127;28;20530;-81
2023/08/08 02:44:26;;;;;;;5.03;1.60;;;;;;;;;;5107123;28;20012;-82
2023/08/08 02:46:51;;;;;;;7.38;2.20;;;;;;;;;;5076277;28;20024;-82
2023/08/08 02:49:17;;;;;;;7.10;2.15;;;;;;;;;;5085089;28;20062;-81
2023/08/08 02:51:42;;;;;;;7.30;2.30;;;;;;;;;;5086027;28;20152;-82
2023/08/08 02:54:07;;;;;;;7.95;2.50;;;;;;;;;;5087694;28;20020;-81
2023/08/08 02:56:33;;;;;;;9.98;2.33;;;;;;;;;;5084249;28;20016;-82
2023/08/08 02:58:58;;;;;;;7.00;2.30;;;;;;;;;;5095253;28;20058;-82
2023/08/08 03:01:23;;;;;;;8.30;1.90;;;;;;;;;;5095706;28;20043;-81
2023/08/08 03:03:49;;;;;;;6.72;1.80;;;;;;;;;;5095278;28;20077;-81
2023/08/08 03:06:14;;;;;;;8.25;2.05;;;;;;;;;;5077529;28;20019;-82
2023/08/08 03:08:39;;;;;;;7.40;2.08;;;;;;;;;;5074612;28;20048;-82
2023/08/08 03:11:07;;;;;;;9.45;2.13;;;;;;;;;;5075202;28;20526;-81
2023/08/08 03:13:38;;;;;;;10.40;2.55;;;;;;;;;;5075219;28;20095;-82
2023/08/08 03:16:03;;;;;;;8.48;2.17;;;;;;;;;;5074454;28;20020;-81
2023/08/08 03:18:29;;;;;;;11.13;2.63;;;;;;;;;;5074567;28;20547;-81
2023/08/08 03:20:54;;;;;;;8.73;2.47;;;;;;;;;;5075915;28;20382;-82
2023/08/08 03:23:20;;;;;;;7.03;2.42;;;;;;;;;;5074771;28;20020;-81
2023/08/08 03:25:45;;;;;;;9.63;2.42;;;;;;;;;;5075396;28;20020;-82
2023/08/08 03:28:10;;;;;;;6.75;2.35;;;;;;;;;;5075332;28;20028;-82
2023/08/08 03:30:37;;;;;;;7.72;2.55;;;;;;;;;;5078744;28;20111;-82
2023/08/08 03:33:03;;;;;;;12.13;2.97;;;;;;;;;;5084965;28;20020;-89
2023/08/08 03:35:29;;;;;;;13.27;2.30;;;;;;;;;;5080280;28;20026;-89
2023/08/08 03:37:54;;;;;;;8.32;2.88;;;;;;;;;;5081489;28;20036;-82
2023/08/08 03:40:20;;;;;;;7.95;2.47;;;;;;;;;;5080495;28;20019;-81
2023/08/08 03:42:45;;;;;;;10.60;2.38;;;;;;;;;;5071005;28;20028;-82
2023/08/08 03:45:11;;;;;;;12.10;2.22;;;;;;;;;;5074545;28;20040;-82
2023/08/08 03:47:36;;;;;;;10.63;2.47;;;;;;;;;;5074877;28;20027;-82
2023/08/08 03:50:02;;;;;;;6.00;2.63;;;;;;;;;;5077788;28;20472;-82
2023/08/08 03:52:28;;;;;;;10.88;2.58;;;;;;;;;;5077309;28;20020;-81
2023/08/08 03:54:56;;;;;;;8.80;2.13;;;;;;;;;;5074502;28;20024;-81
2023/08/08 03:57:21;;;;;;;6.57;1.98;;;;;;;;;;5074387;28;20073;-81
2023/08/08 03:59:46;;;;;;;12.10;2.75;;;;;;;;;;5073998;28;20016;-82
2023/08/08 04:02:12;;;;;;;6.50;2.30;;;;;;;;;;5074593;28;20597;-81
2023/08/08 04:04:38;;;;;;;4.57;2.30;;;;;;;;;;5074120;28;20070;-82
2023/08/08 04:07:04;;;;;;;7.68;2.25;;;;;;;;;;5074401;28;20069;-82
2023/08/08 04:09:29;;;;;;;13.30;2.28;;;;;;;;;;5073373;28;20016;-82
2023/08/08 04:11:54;;;;;;;6.70;2.00;;;;;;;;;;5073585;28;20058;-81
2023/08/08 04:14:20;;;;;;;14.98;3.28;;;;;;;;;;5091688;28;20019;-82
2023/08/08 04:16:45;;;;;;;8.98;2.58;;;;;;;;;;5073382;28;20019;-82
2023/08/08 04:19:10;;;;;;;6.88;2.10;;;;;;;;;;5072999;28;20020;-82
2023/08/08 04:21:36;;;;;;;8.38;2.50;;;;;;;;;;5072939;28;20160;-82
2023/08/08 04:24:02;;;;;;;11.30;2.47;;;;;;;;;;5073955;28;20016;-82
2023/08/08 04:26:27;;;;;;;7.10;2.30;;;;;;;;;;5073418;28;20027;-82
2023/08/08 04:28:52;;;;;;;6.55;2.30;;;;;;;;;;5074312;28;20020;-82
2023/08/08 04:31:18;;;;;;;11.77;2.58;;;;;;;;;;5073154;28;20549;-81
2023/08/08 04:33:43;;;;;;;7.32;2.20;;;;;;;;;;5074487;28;20026;-82
2023/08/08 04:36:09;;;;;;;8.40;2.50;;;;;;;;;;5074922;28;20048;-82
2023/08/08 04:38:35;;;;;;;12.65;2.53;;;;;;;;;;5073969;28;20034;-82
2023/08/08 04:41:00;;;;;;;9.55;2.63;;;;;;;;;;5073524;28;20019;-82
2023/08/08 04:43:28;;;;;;;10.65;3.10;;;;;;;;;;5076846;28;20012;-81
2023/08/08 04:45:56;;;;;;;10.95;3.70;;;;;;;;;;5079368;28;20020;-82
2023/08/08 04:48:21;;;;;;;8.43;3.05;;;;;;;;;;5078743;28;20020;-81
2023/08/08 04:50:47;;;;;;;9.55;2.70;;;;;;;;;;5094443;28;20024;-82
2023/08/08 04:53:12;;;;;;;8.65;2.33;;;;;;;;;;5094943;28;20016;-82
2023/08/08 04:55:38;;;;;;;7.63;2.63;;;;;;;;;;5095376;28;20473;-82
2023/08/08 04:58:06;;;;;;;10.35;3.00;;;;;;;;;;5076635;28;20099;-81
2023/08/08 05:00:32;;;;;;;10.45;2.67;;;;;;;;;;5078529;28;20067;-81
2023/08/08 05:02:57;;;;;;;13.57;3.47;;;;;;;;;;5074954;28;20020;-82
2023/08/08 05:05:22;;;;;;;11.55;2.53;;;;;;;;;;5077652;28;20023;-81
2023/08/08 05:07:48;;;;;;;9.32;2.30;;;;;;;;;;5076814;28;20028;-81
2023/08/08 05:10:13;;;;;;;10.50;2.50;;;;;;;;;;5078126;28;20031;-81
2023/08/08 05:12:39;;;;;;;8.43;2.55;;;;;;;;;;5077430;28;20028;-81
2023/08/08 05:15:04;;;;;;;10.02;2.28;;;;;;;;;;5096351;28;20134;-81
2023/08/08 05:17:31;;;;;;;8.15;2.42;;;;;;;;;;5076772;28;20027;-81
2023/08/08 05:19:56;;;;;;;17.38;2.70;;;;;;;;;;5093397;28;20514;-82
2023/08/08 05:22:22;;;;;;;8.77;2.60;;;;;;;;;;5077098;28;20027;-81
2023/08/08 05:24:47;;;;;;;12.13;2.60;;;;;;;;;;5095126;28;20119;-81
2023/08/08 05:27:12;;;;;;;10.05;2.50;;;;;;;;;;5077894;28;20035;-80
2023/08/08 05:29:39;;;;;;;8.48;2.38;;;;;;;;;;5076517;28;20024;-82
2023/08/08 05:32:06;;;;;;;8.70;2.47;;;;;;;;;;5076818;28;20035;-82
2023/08/08 05:34:32;;;;;;;9.98;2.53;;;;;;;;;;5076165;28;20505;-82
2023/08/08 05:36:57;;;;;;;7.97;3.10;;;;;;;;;;5077140;28;20028;-81
2023/08/08 05:39:22;;;;;;;7.00;2.60;;;;;;;;;;5076386;28;20047;-81
2023/08/08 05:41:50;;;;;;;10.25;2.78;;;;;;;;;;5076902;28;20409;-81
2023/08/08 05:44:15;;;;;;;12.13;2.55;;;;;;;;;;5076967;28;20123;-82
2023/08/08 05:46:41;;;;;;;11.05;2.72;;;;;;;;;;5076361;28;20512;-81
2023/08/08 05:49:08;;;;;;;11.13;2.70;;;;;;;;;;5076718;28;20028;-82
2023/08/08 05:51:34;;;;;;;14.40;2.42;;;;;;;;;;5078144;28;20024;-82
2023/08/08 05:53:59;;;;;;;10.52;2.72;;;;;;;;;;5076599;28;20086;-82
2023/08/08 05:56:24;;;;;;;5.65;2.60;;;;;;;;;;5076806;28;20019;-81
2023/08/08 05:58:50;;;;;;;11.40;3.08;;;;;;;;;;5076249;28;20599;-81
2023/08/08 06:01:15;;;;;;;8.27;2.50;;;;;;;;;;5078291;28;20062;-81
2023/08/08 06:03:42;;;;;;;9.25;2.72;;;;;;;;;;5078101;28;20455;-81
2023/08/08 06:06:07;;;;;;;10.05;2.40;;;;;;;;;;5077868;28;20063;-81
2023/08/08 06:08:33;;;;;;;14.13;2.88;;;;;;;;;;5096388;28;20023;-81
2023/08/08 06:10:58;;;;;;;17.52;3.28;;;;;;;;;;5076967;28;20024;-82
2023/08/08 06:13:26;;;;;;;11.00;2.70;;;;;;;;;;5095309;28;20012;-82
2023/08/08 06:15:52;;;;;;;8.63;2.35;;;;;;;;;;5071162;28;20589;-83
2023/08/08 06:18:17;;;;;;;9.82;3.15;;;;;;;;;;5076268;28;20020;-82
2023/08/08 06:20:43;;;;;;;10.45;3.03;;;;;;;;;;5094820;28;20020;-81
2023/08/08 06:23:08;;;;;;;10.40;2.80;;;;;;;;;;5076405;28;20017;-83
2023/08/08 06:25:33;;;;;;;10.25;2.65;;;;;;;;;;5075794;28;20111;-82
2023/08/08 06:27:59;;;;;;;10.85;3.10;;;;;;;;;;5076389;28;20112;-81
2023/08/08 06:30:24;;;;;;;20.65;3.38;;;;;;;;;;5094937;28;20101;-83
2023/08/08 06:32:49;;;;;;;14.50;2.90;;;;;;;;;;5076332;28;20024;-82
2023/08/08 06:35:16;;;;;;;7.60;2.63;;;;;;;;;;5093806;28;20081;-82
2023/08/08 06:37:44;;;;;;;10.38;3.25;;;;;;;;;;5075910;28;20135;-82
2023/08/08 06:40:10;;;;;;;9.52;2.50;;;;;;;;;;5072635;28;20047;-82
2023/08/08 06:42:36;;;;;;;8.07;2.17;;;;;;;;;;5075181;28;20053;-82
2023/08/08 06:45:01;;;;;;;6.40;2.38;;;;;;;;;;5075874;28;20020;-82
2023/08/08 06:47:26;;;;;;;9.57;2.75;;;;;;;;;;5086009;28;20123;-82
2023/08/08 06:49:52;;;;;;;9.15;2.78;;;;;;;;;;5075365;28;20475;-82
2023/08/08 06:52:17;;;;;;;12.73;2.40;;;;;;;;;;5075113;28;20050;-82
2023/08/08 06:54:42;;;;;;;10.50;2.28;;;;;;;;;;5077684;28;20025;-82
2023/08/08 06:57:07;;;;;;;9.15;2.50;;;;;;;;;;5078077;28;20404;-82
2023/08/08 06:59:33;;;;;;;7.32;2.92;;;;;;;;;;5075227;28;20469;-81
2023/08/08 07:01:58;;;;;;;5.90;2.40;;;;;;;;;;5077751;28;20028;-82
2023/08/08 07:04:26;;;;;;;13.88;3.10;;;;;;;;;;5075862;28;20023;-82
2023/08/08 07:06:56;;;;;;;8.75;2.30;;;;;;;;;;5080391;28;20024;-82
2023/08/08 07:09:22;;;;;;;8.50;2.35;;;;;;;;;;5078071;28;20066;-82
2023/08/08 07:11:47;;;;;;;9.93;2.13;;;;;;;;;;5075152;28;20082;-82
2023/08/08 07:14:13;;;;;;;13.50;2.63;;;;;;;;;;5074878;28;20061;-82
2023/08/08 07:16:38;;;;;;;10.05;2.33;;;;;;;;;;5076231;28;20451;-82
2023/08/08 07:19:03;;;;;;;5.35;2.47;;;;;;;;;;5076573;28;20027;-81
2023/08/08 07:21:29;;;;;;;9.65;2.42;;;;;;;;;;5076861;28;20066;-82
2023/08/08 07:23:57;;;;;;;7.13;2.70;;;;;;;;;;5076442;28;20555;-82
2023/08/08 07:26:23;;;;;;;11.75;2.83;;;;;;;;;;5075026;28;20536;-81
2023/08/08 07:28:48;;;;;;;15.85;2.45;;;;;;;;;;5076074;28;20024;-81
2023/08/08 07:31:16;;;;;;;10.32;2.67;;;;;;;;;;5076452;28;20020;-82
2023/08/08 07:33:42;;;;;;;9.50;3.10;;;;;;;;;;5077064;28;20062;-82
2023/08/08 07:36:07;;;;;;;9.90;2.60;;;;;;;;;;5075864;28;20020;-82
2023/08/08 07:38:33;;;;;;;15.43;2.60;;;;;;;;;;5094562;28;20107;-82
2023/08/08 07:40:58;;;;;;;11.05;2.47;;;;;;;;;;5072404;28;20031;-82
2023/08/08 07:43:23;;;;;;;15.80;2.72;;;;;;;;;;5100675;28;20503;-82
2023/08/08 07:45:49;;;;;;;10.07;2.08;;;;;;;;;;5100351;28;20027;-81
2023/08/08 07:48:14;;;;;;;6.57;2.15;;;;;;;;;;5100901;28;20072;-82
2023/08/08 07:50:39;;;;;;;14.20;2.70;;;;;;;;;;5095188;28;20100;-82
2023/08/08 07:53:05;;;;;;;7.95;2.65;;;;;;;;;;5100701;28;20016;-82
2023/08/08 07:55:30;;;;;;;8.45;2.08;;;;;;;;;;5065992;28;20020;-82
2023/08/08 07:57:55;;;;;;;7.45;2.40;;;;;;;;;;5080211;28;20028;-82
2023/08/08 08:00:21;;;;;;;8.55;2.08;;;;;;;;;;5110793;28;20110;-81
2023/08/08 08:02:47;;;;;;;6.78;2.38;;;;;;;;;;5083050;28;20034;-82
2023/08/08 08:05:13;;;;;;;8.90;2.58;;;;;;;;;;5073170;28;20107;-82
2023/08/08 08:07:39;;;;;;;11.68;2.67;;;;;;;;;;5074082;28;20139;-82
2023/08/08 08:10:08;;;;;;;10.18;2.33;;;;;;;;;;5074206;28;20020;-82
2023/08/08 08:12:34;;;;;;;7.85;2.58;;;;;;;;;;5073450;28;20088;-82
2023/08/08 08:14:59;;;;;;;9.63;2.72;;;;;;;;;;5074454;28;20044;-82
2023/08/08 08:17:27;;;;;;;8.93;2.42;;;;;;;;;;5074358;28;20044;-82
2023/08/08 08:19:53;;;;;;;12.68;2.85;;;;;;;;;;5092610;28;20382;-84
2023/08/08 08:22:18;;;;;;;8.68;2.00;;;;;;;;;;5090353;28;20042;-82
2023/08/08 08:24:44;;;;;;;5.03;2.08;;;;;;;;;;5072222;28;20067;-82
2023/08/08 08:27:11;;;;;;;6.72;2.50;;;;;;;;;;5074604;28;20071;-82
2023/08/08 08:29:39;;;;;;;7.43;2.03;;;;;;;;;;5073384;28;20118;-82
2023/08/08 08:32:04;;;;;;;13.65;2.50;;;;;;;;;;5073784;28;20050;-82
2023/08/08 08:34:30;;;;;;;7.63;1.90;;;;;;;;;;5066478;28;20063;-81
2023/08/08 08:36:55;;;;;;;4.65;1.80;;;;;;;;;;5061795;28;20020;-82
2023/08/08 08:39:24;;;;;;;6.03;2.00;;;;;;;;;;5080782;28;20032;-82
2023/08/08 08:41:58;;;;;;;11.40;2.28;;;;;;;;;;5076661;28;20031;-82
2023/08/08 08:44:24;;;;;;;6.68;1.90;;;;;;;;;;5079136;28;20024;-82
2023/08/08 08:46:50;;;;;;;4.78;1.75;;;;;;;;;;5080507;28;20427;-81
2023/08/08 08:49:22;;;;;;;11.75;2.17;;;;;;;;;;5081309;28;20039;-82
2023/08/08 08:51:47;;;;;;;7.22;2.25;;;;;;;;;;5078753;28;20027;-82
2023/08/08 08:54:14;;;;;;;9.05;2.45;;;;;;;;;;5076038;28;20089;-82
2023/08/08 08:56:40;;;;;;;7.28;2.25;;;;;;;;;;5074641;28;20095;-82
2023/08/08 08:59:05;;;;;;;7.38;2.15;;;;;;;;;;5076754;28;20052;-82
2023/08/08 09:01:31;;;;;;;7.85;2.33;;;;;;;;;;5073455;28;20035;-81
2023/08/08 09:03:59;;;;;;;9.82;2.20;;;;;;;;;;5073446;28;20024;-82
2023/08/08 09:06:28;;;;;;;9.73;2.80;;;;;;;;;;5074146;28;20146;-82
2023/08/08 09:08:54;;;;;;;11.45;2.20;;;;;;;;;;5074318;28;20026;-82
2023/08/08 09:11:19;;;;;;;9.52;1.98;;;;;;;;;;5093378;28;20455;-81
2023/08/08 09:13:45;;;;;;;7.82;2.47;;;;;;;;;;5094123;28;20024;-82
2023/08/08 09:16:12;;;;;;;7.35;2.65;;;;;;;;;;5071702;28;20052;-82
2023/08/08 09:18:38;;;;;;;6.90;2.05;;;;;;;;;;5082514;28;20441;-81
2023/08/08 09:21:03;;;;;;;10.18;1.67;;;;;;;;;;5084156;28;20111;-82
2023/08/08 09:23:29;;;;;;;6.00;2.15;;;;;;;;;;5102948;28;20423;-82
2023/08/08 09:25:54;;;;;;;7.07;2.20;;;;;;;;;;5093794;28;20015;-80
2023/08/08 09:28:19;;;;;;;10.77;2.08;;;;;;;;;;5084957;28;20107;-82
2023/08/08 09:30:45;;;;;;;5.65;2.08;;;;;;;;;;5078866;28;20127;-82
2023/08/08 09:33:11;;;;;;;7.50;2.42;;;;;;;;;;5085621;28;20024;-82
2023/08/08 09:35:40;;;;;;;11.80;2.30;;;;;;;;;;5099159;28;20020;-81
2023/08/08 09:38:09;;;;;;;9.80;2.33;;;;;;;;;;5070394;28;20391;-82
2023/08/08 09:40:34;;;;;;;11.38;2.90;;;;;;;;;;5080998;28;20077;-82
2023/08/08 09:43:00;;;;;;;7.25;2.25;;;;;;;;;;5092560;28;20121;-82
2023/08/08 09:45:25;;;;;;;6.60;2.55;;;;;;;;;;5096175;28;20546;-82
2023/08/08 09:47:52;;;;;;;8.95;3.25;;;;;;;;;;5096150;28;20110;-82
2023/08/08 09:50:18;;;;;;;7.32;2.78;;;;;;;;;;5073919;28;20051;-82
2023/08/08 09:52:43;;;;;;;9.07;3.20;;;;;;;;;;5074721;28;20032;-82
2023/08/08 09:55:10;;;;;;;11.63;4.32;;;;;;;;;;5084973;28;20027;-83
2023/08/08 09:57:38;;;;;;;7.30;3.20;;;;;;;;;;5094295;28;20031;-82
2023/08/08 10:00:05;;;;;;;7.57;3.50;;;;;;;;;;5085326;28;20373;-81
2023/08/08 10:02:32;;;;;;;8.80;3.75;;;;;;;;;;5108919;28;20082;-86
2023/08/08 10:04:58;;;;;;;9.30;3.63;;;;;;;;;;5087652;28;20039;-86
2023/08/08 10:07:23;;;;;;;15.07;3.67;;;;;;;;;;5077865;28;20024;-86
2023/08/08 10:09:49;;;;;;;15.88;4.00;;;;;;;;;;5095952;28;20431;-87
2023/08/08 10:12:15;;;;;;;4.55;2.85;;;;;;;;;;5078705;28;20032;-85
2023/08/08 10:14:42;;;;;;;7.97;3.25;;;;;;;;;;5096454;28;20463;-89
2023/08/08 10:17:07;;;;;;;4.90;2.63;;;;;;;;;;5096116;28;20102;-88
2023/08/08 10:19:36;;;;;;;15.85;3.25;;;;;;;;;;5079407;28;20103;-86
2023/08/08 10:22:05;;;;;;;7.57;3.55;;;;;;;;;;5078905;28;20473;-88
2023/08/08 10:24:35;;;;;;;10.38;2.80;;;;;;;;;;5079057;28;20067;-89
2023/08/08 10:27:01;;;;;;;9.73;3.47;;;;;;;;;;5079442;28;20051;-88
2023/08/08 10:29:28;;;;;;;8.63;3.88;;;;;;;;;;5077367;28;20032;-89
2023/08/08 10:31:53;;;;;;;7.95;3.10;;;;;;;;;;5093912;28;20024;-86
2023/08/08 10:34:20;;;;;;;5.95;2.72;;;;;;;;;;5094296;28;20047;-87
2023/08/08 10:36:55;;;;;;;10.35;3.78;;;;;;;;;;5076713;28;20028;-86
2023/08/08 10:39:21;;;;;;;8.13;3.08;;;;;;;;;;5094063;28;20020;-86
2023/08/08 10:41:47;;;;;;;12.60;3.42;;;;;;;;;;5085326;28;20029;-85
2023/08/08 10:44:15;;;;;;;4.68;2.92;;;;;;;;;;5073244;28;20515;-86
2023/08/08 10:46:44;;;;;;;7.38;2.67;;;;;;;;;;5072605;28;20321;-86
2023/08/08 10:49:11;;;;;;;7.57;3.42;;;;;;;;;;5075539;28;20024;-86
2023/08/08 10:51:43;;;;;;;5.10;2.65;;;;;;;;;;5087521;28;20028;-88
2023/08/08 10:54:13;;;;;;;9.05;2.50;;;;;;;;;;5074167;28;20117;-89
2023/08/08 10:56:38;;;;;;;4.13;2.53;;;;;;;;;;5091797;28;20019;-88
2023/08/08 10:59:18;;;;;;;8.38;2.90;;;;;;;;;;5076375;28;20034;-88
2023/08/08 11:01:45;;;;;;;6.72;2.35;;;;;;;;;;5071862;28;20056;-88
2023/08/08 11:04:11;;;;;;;5.63;2.60;;;;;;;;;;5078597;28;20484;-88
2023/08/08 11:06:39;;;;;;;6.57;2.30;;;;;;;;;;5094823;28;20036;-89
2023/08/08 11:09:07;;;;;;;2.70;1.60;;;;;;;;;;5077719;28;20035;-89
2023/08/08 11:11:37;;;;;;;5.65;2.13;;;;;;;;;;5077179;28;20032;-89
2023/08/08 11:14:15;;;;;;;9.63;2.10;;;;;;;;;;5074828;28;20020;-88
2023/08/08 11:16:41;;;;;;;4.07;1.67;;;;;;;;;;5077608;28;20044;-89
2023/08/08 11:19:06;;;;;;;2.67;1.42;;;;;;;;;;5078206;28;20024;-86
2023/08/08 11:21:36;;;;;;;4.78;2.10;;;;;;;;;;5073206;28;20124;-85
2023/08/08 11:24:02;;;;;;;4.55;1.73;;;;;;;;;;5093484;28;20024;-85
2023/08/08 11:26:31;;;;;;;4.40;1.88;;;;;;;;;;5092728;28;20040;-86
2023/08/08 11:28:57;;;;;;;7.10;2.20;;;;;;;;;;5077216;28;20490;-86
2023/08/08 11:31:23;;;;;;;4.57;1.70;;;;;;;;;;5093543;28;20081;-86
2023/08/08 11:33:48;;;;;;;4.07;1.77;;;;;;;;;;5076190;28;20085;-86
2023/08/08 11:36:14;;;;;;;3.97;2.30;;;;;;;;;;5075520;28;20024;-86
2023/08/08 11:38:40;;;;;;;2.70;1.63;;;;;;;;;;5076292;28;20036;-85
2023/08/08 11:41:06;;;;;;;4.47;2.00;;;;;;;;;;5076303;28;20116;-85
2023/08/08 11:43:31;;;;;;;4.70;2.03;;;;;;;;;;5075905;28;20031;-87
2023/08/08 11:45:59;;;;;;;7.35;2.10;;;;;;;;;;5076026;28;20375;-86
2023/08/08 11:48:25;;;;;;;3.15;1.23;;;;;;;;;;5075212;28;20494;-83
2023/08/08 11:50:52;;;;;;;6.75;1.35;;;;;;;;;;5075713;28;20020;-85
2023/08/08 11:53:18;;;;;;;3.08;1.85;;;;;;;;;;5092459;28;20027;-87
2023/08/08 11:55:44;;;;;;;5.50;1.60;;;;;;;;;;5075557;28;20024;-87
2023/08/08 11:58:12;;;;;;;4.32;2.30;;;;;;;;;;5093611;28;20030;-85
2023/08/08 12:00:37;;;;;;;3.03;1.80;;;;;;;;;;5075307;28;20028;-86
2023/08/08 12:03:04;;;;;;;5.45;2.70;;;;;;;;;;5094220;28;20436;-86
2023/08/08 12:05:29;;;;;;;14.27;2.10;;;;;;;;;;5075496;28;20032;-86
2023/08/08 12:07:55;;;;;;;6.50;2.20;;;;;;;;;;5075626;28;20070;-86
2023/08/08 12:10:23;;;;;;;8.50;2.03;;;;;;;;;;5074846;28;20106;-85
2023/08/08 12:12:53;;;;;;;3.92;1.67;;;;;;;;;;5091422;28;20070;-87
2023/08/08 12:15:19;;;;;;;4.47;1.33;;;;;;;;;;5093447;28;20305;-86
2023/08/08 12:17:45;;;;;;;4.30;1.60;;;;;;;;;;5075287;28;20363;-86
2023/08/08 12:20:11;;;;;;;3.53;1.45;;;;;;;;;;5091660;28;20161;-86
2023/08/08 12:22:36;;;;;;;2.90;1.48;;;;;;;;;;5075354;28;20425;-86
2023/08/08 12:25:02;;;;;;;2.70;1.70;;;;;;;;;;5093213;28;20020;-86
2023/08/08 12:27:29;;;;;;;3.95;1.40;;;;;;;;;;5075785;28;20028;-86
2023/08/08 12:29:54;;;;;;;5.72;1.90;;;;;;;;;;5074890;28;20082;-86
2023/08/08 12:32:20;;;;;;;2.65;1.40;;;;;;;;;;5075236;28;20031;-86
2023/08/08 12:34:45;;;;;;;4.95;1.90;;;;;;;;;;5073538;28;20131;-86
2023/08/08 12:37:10;;;;;;;2.72;1.60;;;;;;;;;;5075843;28;20027;-86
2023/08/08 12:39:36;;;;;;;6.07;1.85;;;;;;;;;;5077165;28;20020;-86
2023/08/08 12:42:03;;;;;;;2.25;1.50;;;;;;;;;;5085868;28;20015;-86
2023/08/08 12:44:29;;;;;;;2.17;1.52;;;;;;;;;;5092582;28;20115;-86
2023/08/08 12:46:54;;;;;;;4.60;1.90;;;;;;;;;;5088573;28;20027;-85
2023/08/08 12:49:20;;;;;;;2.65;1.40;;;;;;;;;;5078764;28;20028;-86
2023/08/08 12:51:45;;;;;;;7.80;1.70;;;;;;;;;;5080028;28;20490;-86
2023/08/08 12:54:10;;;;;;;4.45;1.50;;;;;;;;;;5071830;28;20467;-86
2023/08/08 12:56:36;;;;;;;5.80;1.70;;;;;;;;;;5078358;28;20462;-86
2023/08/08 12:59:05;;;;;;;4.95;2.05;;;;;;;;;;5089802;28;20399;-86
2023/08/08 13:01:30;;;;;;;3.70;1.52;;;;;;;;;;5094220;28;20346;-85
2023/08/08 13:03:55;;;;;;;2.17;1.92;;;;;;;;;;5081910;28;20110;-86
2023/08/08 13:06:21;;;;;;;6.45;2.15;;;;;;;;;;5077372;28;20405;-84
2023/08/08 13:08:46;;;;;;;7.63;2.25;;;;;;;;;;5075366;28;20055;-86
2023/08/08 13:11:11;;;;;;;2.70;1.90;;;;;;;;;;5092187;28;20089;-86
2023/08/08 13:13:40;;;;;;;5.80;1.70;;;;;;;;;;5075507;28;20016;-86
2023/08/08 13:16:05;;;;;;;2.10;1.25;;;;;;;;;;5074478;28;20103;-84
2023/08/08 13:18:30;;;;;;;2.20;1.45;;;;;;;;;;5060618;28;20020;-86
2023/08/08 13:20:56;;;;;;;3.13;1.27;;;;;;;;;;5092310;28;20081;-86
2023/08/08 13:23:25;;;;;;;2.55;1.50;;;;;;;;;;5075272;28;20040;-86
2023/08/08 13:25:50;;;;;;;4.53;1.30;;;;;;;;;;5095767;28;20054;-86
2023/08/08 13:28:15;;;;;;;3.45;1.30;;;;;;;;;;5078676;28;20073;-86
2023/08/08 13:30:42;;;;;;;1.30;1.08;;;;;;;;;;5096256;28;20485;-85
2023/08/08 13:33:08;;;;;;;2.15;1.50;;;;;;;;;;5078109;28;20111;-86
2023/08/08 13:35:34;;;;;;;2.83;1.40;;;;;;;;;;5078983;28;20050;-86
2023/08/08 13:37:59;;;;;;;3.55;0.93;;;;;;;;;;5078473;28;20194;-87
2023/08/08 13:40:25;;;;;;;1.55;1.05;;;;;;;;;;5077614;28;20455;-85
2023/08/08 13:42:50;;;;;;;7.50;1.42;;;;;;;;;;5087410;28;20477;-86
2023/08/08 13:45:15;;;;;;;2.58;1.30;;;;;;;;;;5078661;28;20378;-86
2023/08/08 13:47:41;;;;;;;4.20;1.15;;;;;;;;;;5078514;28;20058;-87
2023/08/08 13:50:09;;;;;;;3.17;1.20;;;;;;;;;;5075601;28;20055;-86
2023/08/08 13:52:34;;;;;;;2.05;0.80;;;;;;;;;;5088585;28;20012;-85
2023/08/08 13:54:59;;;;;;;1.42;0.57;;;;;;;;;;5071876;28;20034;-86
2023/08/08 13:57:25;;;;;;;5.10;1.13;;;;;;;;;;5076702;28;20012;-86
2023/08/08 13:59:50;;;;;;;1.58;0.98;;;;;;;;;;5079073;28;20034;-86
2023/08/08 14:02:17;;;;;;;0.38;0.38;;;;;;;;;;5077097;28;20107;-86
2023/08/08 14:04:43;;;;;;;1.73;0.70;;;;;;;;;;5078204;28;20069;-85
2023/08/08 14:07:09;;;;;;;1.58;1.10;;;;;;;;;;5097354;28;20020;-86
2023/08/08 14:09:36;;;;;;;1.10;0.73;;;;;;;;;;5090409;28;20024;-86
2023/08/08 14:12:02;;;;;;;1.63;0.80;;;;;;;;;;5079040;28;20032;-85
2023/08/08 14:14:27;;;;;;;3.22;0.80;;;;;;;;;;5079560;28;20020;-85
2023/08/08 14:16:55;;;;;;;2.58;0.90;;;;;;;;;;5078789;28;20023;-86
2023/08/08 14:19:20;;;;;;;4.97;0.68;;;;;;;;;;5078919;28;20379;-86
2023/08/08 14:21:46;;;;;;;1.98;0.70;;;;;;;;;;5077468;28;20024;-87
2023/08/08 14:24:13;;;;;;;1.80;1.20;;;;;;;;;;5077892;28;20372;-86
2023/08/08 14:26:39;;;;;;;1.77;0.80;;;;;;;;;;5064767;28;20057;-85
2023/08/08 14:29:04;;;;;;;0.60;0.50;;;;;;;;;;5077387;28;20065;-85
2023/08/08 14:31:29;;;;;;;1.70;0.77;;;;;;;;;;5074351;28;20099;-86
2023/08/08 14:33:55;;;;;;;1.25;0.60;;;;;;;;;;5065811;28;20024;-86